createdAt,value
2018-12-29T00:01:15.640Z,1.50
2018-12-29T00:03:44.716Z,1.50
2018-12-29T00:06:13.412Z,1.50
2018-12-29T00:08:42.351Z,1.50
2018-12-29T00:11:11.354Z,1.50
2018-12-29T00:13:39.998Z,1.50
2018-12-29T00:16:08.648Z,1.50
2018-12-29T00:18:37.336Z,1.50
2018-12-29T00:21:06.013Z,1.60
2018-12-29T00:23:34.673Z,1.50
2018-12-29T00:26:03.360Z,1.50
2018-12-29T00:28:32.046Z,1.60
2018-12-29T00:31:00.718Z,1.60
2018-12-29T00:33:29.721Z,1.50
2018-12-29T00:35:58.376Z,1.60
2018-12-29T00:38:27.065Z,1.60
2018-12-29T00:40:58.530Z,1.60
2018-12-29T00:43:27.188Z,1.60
2018-12-29T00:45:55.866Z,1.60
2018-12-29T00:48:24.546Z,1.60
2018-12-29T00:50:53.183Z,1.60
2018-12-29T00:53:21.829Z,1.60
2018-12-29T00:55:50.512Z,1.60
2018-12-29T00:58:19.169Z,1.60
2018-12-29T01:00:47.820Z,1.60
2018-12-29T01:03:16.849Z,1.60
2018-12-29T01:05:45.498Z,1.60
2018-12-29T01:08:14.148Z,1.50
2018-12-29T01:10:43.195Z,1.50
2018-12-29T01:13:11.913Z,1.50
2018-12-29T01:15:40.530Z,1.50
2018-12-29T01:18:09.550Z,1.40
2018-12-29T01:20:38.212Z,1.40
2018-12-29T01:23:06.885Z,1.50
2018-12-29T01:25:35.579Z,1.40
2018-12-29T01:28:04.232Z,1.50
2018-12-29T01:30:32.911Z,1.50
2018-12-29T01:33:01.584Z,1.50
2018-12-29T01:35:30.227Z,1.50
2018-12-29T01:37:58.873Z,1.50
2018-12-29T01:40:27.803Z,1.60
2018-12-29T01:42:56.474Z,1.60
2018-12-29T01:45:25.154Z,1.60
2018-12-29T01:47:53.842Z,1.60
2018-12-29T01:50:22.530Z,1.60
2018-12-29T01:52:51.234Z,1.60
2018-12-29T01:55:19.939Z,1.60
2018-12-29T01:57:48.651Z,1.60
2018-12-29T02:00:17.322Z,1.60
2018-12-29T02:02:46.615Z,1.50
2018-12-29T02:05:15.228Z,1.50
2018-12-29T02:07:43.883Z,1.50
2018-12-29T02:10:13.160Z,1.40
2018-12-29T02:12:41.823Z,1.50
2018-12-29T02:15:10.469Z,1.50
2018-12-29T02:17:39.168Z,1.50
2018-12-29T02:20:07.834Z,1.50
2018-12-29T02:22:36.456Z,1.50
2018-12-29T02:25:05.692Z,1.60
2018-12-29T02:27:34.336Z,1.60
2018-12-29T02:30:03.052Z,1.60
2018-12-29T02:32:31.773Z,1.70
2018-12-29T02:35:00.436Z,1.70
2018-12-29T02:37:29.077Z,1.70
2018-12-29T02:39:57.772Z,1.70
2018-12-29T02:42:26.426Z,1.70
2018-12-29T02:44:55.087Z,1.70
2018-12-29T02:47:23.822Z,1.70
2018-12-29T02:49:52.476Z,1.70
2018-12-29T02:52:21.120Z,1.70
2018-12-29T02:54:49.830Z,1.70
2018-12-29T02:57:18.488Z,1.70
2018-12-29T02:59:47.135Z,1.70
2018-12-29T03:02:15.870Z,1.70
2018-12-29T03:04:44.510Z,1.70
2018-12-29T03:07:13.154Z,1.70
2018-12-29T03:09:42.230Z,1.80
2018-12-29T03:12:10.815Z,1.80
2018-12-29T03:14:39.483Z,1.80
2018-12-29T03:17:08.184Z,1.80
2018-12-29T03:19:36.825Z,1.80
2018-12-29T03:22:05.469Z,1.80
2018-12-29T03:24:34.652Z,1.80
2018-12-29T03:27:03.293Z,1.80
2018-12-29T03:29:31.936Z,1.80
2018-12-29T03:32:00.638Z,1.70
2018-12-29T03:34:29.280Z,1.70
2018-12-29T03:36:57.915Z,1.70
2018-12-29T03:39:26.940Z,1.70
2018-12-29T03:41:55.581Z,1.70
2018-12-29T03:44:24.208Z,1.70
2018-12-29T03:46:52.897Z,1.70
2018-12-29T03:49:21.577Z,1.70
2018-12-29T03:51:50.222Z,1.70
2018-12-29T03:54:18.930Z,1.70
2018-12-29T03:56:47.576Z,1.70
2018-12-29T03:59:16.306Z,1.70
2018-12-29T04:01:45.309Z,1.80
2018-12-29T04:04:13.931Z,1.80
2018-12-29T04:06:42.581Z,1.80
2018-12-29T04:09:31.546Z,1.90
2018-12-29T04:12:02.203Z,1.80
2018-12-29T04:14:30.848Z,1.80
2018-12-29T04:16:59.545Z,1.80
2018-12-29T04:19:28.189Z,1.80
2018-12-29T04:21:56.836Z,1.80
2018-12-29T04:24:25.567Z,1.80
2018-12-29T04:26:54.207Z,1.80
2018-12-29T04:29:22.872Z,1.80
2018-12-29T04:31:51.894Z,1.80
2018-12-29T04:34:20.569Z,1.70
2018-12-29T04:36:49.221Z,1.60
2018-12-29T04:39:18.126Z,1.60
2018-12-29T04:41:46.847Z,1.60
2018-12-29T04:44:15.452Z,1.50
2018-12-29T04:46:44.369Z,1.40
2018-12-29T04:49:12.998Z,1.40
2018-12-29T04:51:41.668Z,1.30
2018-12-29T04:54:10.609Z,1.30
2018-12-29T04:56:39.270Z,1.20
2018-12-29T04:59:07.907Z,1.20
2018-12-29T05:01:36.600Z,1.20
2018-12-29T05:04:05.233Z,1.20
2018-12-29T05:06:33.973Z,1.20
2018-12-29T05:09:02.779Z,1.30
2018-12-29T05:11:31.412Z,1.30
2018-12-29T05:14:00.247Z,1.40
2018-12-29T05:16:28.933Z,1.40
2018-12-29T05:18:57.622Z,1.40
2018-12-29T05:21:26.230Z,1.40
2018-12-29T05:23:54.929Z,1.50
2018-12-29T05:26:26.063Z,1.50
2018-12-29T05:28:56.375Z,1.60
2018-12-29T05:31:25.104Z,1.60
2018-12-29T05:33:53.756Z,1.60
2018-12-29T05:36:22.404Z,1.60
2018-12-29T05:38:51.186Z,1.60
2018-12-29T05:41:19.793Z,1.60
2018-12-29T05:43:48.522Z,1.60
2018-12-29T05:46:20.512Z,1.60
2018-12-29T05:48:47.663Z,1.70
2018-12-29T05:51:16.314Z,1.70
2018-12-29T05:53:45.015Z,1.60
2018-12-29T05:56:13.656Z,1.60
2018-12-29T05:58:42.345Z,1.70
2018-12-29T06:01:11.356Z,1.70
2018-12-29T06:03:40.116Z,1.80
2018-12-29T06:06:08.756Z,1.80
2018-12-29T06:08:37.530Z,1.80
2018-12-29T06:11:06.196Z,1.80
2018-12-29T06:13:34.824Z,1.80
2018-12-29T06:16:03.753Z,1.80
2018-12-29T06:18:32.406Z,1.80
2018-12-29T06:21:01.044Z,1.90
2018-12-29T06:23:29.838Z,1.90
2018-12-29T06:25:58.469Z,2.00
2018-12-29T06:28:27.129Z,1.90
2018-12-29T06:30:55.815Z,1.90
2018-12-29T06:33:24.470Z,1.90
2018-12-29T06:35:53.136Z,1.90
2018-12-29T06:38:21.843Z,2.00
2018-12-29T06:40:50.493Z,2.00
2018-12-29T06:43:19.123Z,1.90
2018-12-29T06:45:48.405Z,1.90
2018-12-29T06:48:17.083Z,1.80
2018-12-29T06:50:45.799Z,1.70
2018-12-29T06:53:14.737Z,1.70
2018-12-29T06:55:43.394Z,1.70
2018-12-29T06:58:15.274Z,1.60
2018-12-29T07:00:43.998Z,1.60
2018-12-29T07:03:12.684Z,1.60
2018-12-29T07:05:41.324Z,1.60
2018-12-29T07:08:10.271Z,1.60
2018-12-29T07:10:38.937Z,1.70
2018-12-29T07:13:07.690Z,1.70
2018-12-29T07:15:37.945Z,1.70
2018-12-29T07:18:06.640Z,1.70
2018-12-29T07:20:35.283Z,1.70
2018-12-29T07:23:04.238Z,1.70
2018-12-29T07:25:32.870Z,1.70
2018-12-29T07:28:01.591Z,1.70
2018-12-29T07:30:33.453Z,1.70
2018-12-29T07:33:02.105Z,1.70
2018-12-29T07:35:31.121Z,1.60
2018-12-29T07:38:00.195Z,1.70
2018-12-29T07:40:28.997Z,1.60
2018-12-29T07:42:57.692Z,1.60
2018-12-29T07:45:26.338Z,1.60
2018-12-29T07:47:57.061Z,1.60
2018-12-29T07:50:25.316Z,1.50
2018-12-29T07:52:54.411Z,1.60
2018-12-29T07:55:23.039Z,1.70
2018-12-29T07:57:53.295Z,1.70
2018-12-29T08:00:22.269Z,1.80
2018-12-29T08:02:50.943Z,1.80
2018-12-29T08:05:19.576Z,1.70
2018-12-29T08:07:48.268Z,1.70
2018-12-29T08:10:16.936Z,1.70
2018-12-29T08:12:45.610Z,1.60
2018-12-29T08:15:14.670Z,1.60
2018-12-29T08:17:43.306Z,1.60
2018-12-29T08:20:11.973Z,1.60
2018-12-29T08:22:40.904Z,1.60
2018-12-29T08:25:09.553Z,1.80
2018-12-29T08:27:38.206Z,1.90
2018-12-29T08:30:08.338Z,1.90
2018-12-29T08:32:38.176Z,1.90
2018-12-29T08:35:06.783Z,1.90
2018-12-29T08:37:35.475Z,1.90
2018-12-29T08:40:04.242Z,2.00
2018-12-29T08:42:32.943Z,1.90
2018-12-29T08:45:01.683Z,1.90
2018-12-29T08:47:30.350Z,1.80
2018-12-29T08:49:58.988Z,2.00
2018-12-29T08:52:27.958Z,1.90
2018-12-29T08:54:56.692Z,1.90
2018-12-29T08:57:25.361Z,1.80
2018-12-29T08:59:54.394Z,1.80
2018-12-29T09:02:23.358Z,1.60
2018-12-29T09:04:52.053Z,1.70
2018-12-29T09:07:21.192Z,1.70
2018-12-29T09:09:49.917Z,1.60
2018-12-29T09:12:18.644Z,1.60
2018-12-29T09:14:47.328Z,1.70
2018-12-29T09:17:15.893Z,1.70
2018-12-29T09:19:44.566Z,1.70
2018-12-29T09:22:13.238Z,1.70
2018-12-29T09:24:42.084Z,1.70
2018-12-29T09:27:10.677Z,1.70
2018-12-29T09:29:39.366Z,1.70
2018-12-29T09:32:08.089Z,1.50
2018-12-29T09:34:36.729Z,1.50
2018-12-29T09:37:05.432Z,1.70
2018-12-29T09:39:34.107Z,1.70
2018-12-29T09:42:02.824Z,1.80
2018-12-29T09:44:31.614Z,1.70
2018-12-29T09:47:00.260Z,1.70
2018-12-29T09:49:29.031Z,1.70
2018-12-29T09:51:58.042Z,1.60
2018-12-29T09:54:26.696Z,1.60
2018-12-29T09:56:55.424Z,1.60
2018-12-29T09:59:24.090Z,1.50
2018-12-29T10:01:52.748Z,1.60
2018-12-29T10:04:21.410Z,1.60
2018-12-29T10:06:50.472Z,1.50
2018-12-29T10:09:19.126Z,1.60
2018-12-29T10:11:47.777Z,1.60
2018-12-29T10:14:16.613Z,1.60
2018-12-29T10:16:45.278Z,1.50
2018-12-29T10:19:13.948Z,1.60
2018-12-29T10:21:42.771Z,1.60
2018-12-29T10:24:11.501Z,1.70
2018-12-29T10:26:40.147Z,1.70
2018-12-29T10:29:12.727Z,1.70
2018-12-29T10:31:40.982Z,1.60
2018-12-29T10:34:10.167Z,1.60
2018-12-29T10:36:39.541Z,1.50
2018-12-29T10:39:08.181Z,1.50
2018-12-29T10:41:36.879Z,1.50
2018-12-29T10:44:05.539Z,1.50
2018-12-29T10:46:34.174Z,1.40
2018-12-29T10:49:02.827Z,1.30
2018-12-29T10:51:31.903Z,1.20
2018-12-29T10:54:01.373Z,1.30
2018-12-29T10:56:34.501Z,1.30
2018-12-29T10:59:03.514Z,1.30
2018-12-29T11:01:32.174Z,1.30
2018-12-29T11:04:00.879Z,1.30
2018-12-29T11:06:29.879Z,1.40
2018-12-29T11:08:58.557Z,1.40
2018-12-29T11:11:27.252Z,1.40
2018-12-29T11:13:55.980Z,1.20
2018-12-29T11:16:24.617Z,1.30
2018-12-29T11:18:53.333Z,1.40
2018-12-29T11:21:21.983Z,1.30
2018-12-29T11:23:50.724Z,1.30
2018-12-29T11:26:19.384Z,1.30
2018-12-29T11:28:48.108Z,1.30
2018-12-29T11:31:16.744Z,1.30
2018-12-29T11:33:45.380Z,1.20
2018-12-29T11:36:14.068Z,1.30
2018-12-29T11:38:42.730Z,1.80
2018-12-29T11:41:11.392Z,2.10
2018-12-29T11:43:40.106Z,2.10
2018-12-29T11:46:08.751Z,2.10
2018-12-29T11:48:38.437Z,2.20
2018-12-29T11:51:07.382Z,2.10
2018-12-29T11:53:36.028Z,2.10
2018-12-29T11:56:04.825Z,1.80
2018-12-29T11:58:33.993Z,1.50
2018-12-29T12:01:02.836Z,1.40
2018-12-29T12:03:31.478Z,1.30
2018-12-29T12:06:00.428Z,1.20
2018-12-29T12:08:29.100Z,1.10
2018-12-29T12:10:57.769Z,1.10
2018-12-29T12:13:26.673Z,1.10
2018-12-29T12:15:55.325Z,1.10
2018-12-29T12:18:23.998Z,1.10
2018-12-29T12:20:52.682Z,1.10
2018-12-29T12:23:21.350Z,1.10
2018-12-29T12:25:50.038Z,1.10
2018-12-29T12:28:19.140Z,1.10
2018-12-29T12:30:47.809Z,1.10
2018-12-29T12:33:16.888Z,1.20
2018-12-29T12:35:45.820Z,1.10
2018-12-29T12:38:14.808Z,1.00
2018-12-29T12:40:43.457Z,1.10
2018-12-29T12:43:13.136Z,1.10
2018-12-29T12:45:42.396Z,1.20
2018-12-29T12:48:11.050Z,1.10
2018-12-29T12:50:39.764Z,1.10
2018-12-29T12:53:08.388Z,1.00
2018-12-29T12:55:37.496Z,1.00
2018-12-29T12:58:07.027Z,0.90
2018-12-29T13:00:36.064Z,0.90
2018-12-29T13:03:04.932Z,0.90
2018-12-29T13:05:33.934Z,0.80
2018-12-29T13:08:02.986Z,0.90
2018-12-29T13:10:31.651Z,0.90
2018-12-29T13:13:00.332Z,0.90
2018-12-29T13:15:29.076Z,0.90
2018-12-29T13:17:57.772Z,0.90
2018-12-29T13:20:27.081Z,0.90
2018-12-29T13:22:55.826Z,0.90
2018-12-29T13:25:26.043Z,0.90
2018-12-29T13:27:55.046Z,0.90
2018-12-29T13:30:23.728Z,0.90
2018-12-29T13:32:52.755Z,0.90
2018-12-29T13:35:21.475Z,0.90
2018-12-29T13:37:50.122Z,0.90
2018-12-29T13:40:18.799Z,0.90
2018-12-29T13:42:47.533Z,0.80
2018-12-29T13:45:16.346Z,0.80
2018-12-29T13:47:45.077Z,0.80
2018-12-29T13:50:13.863Z,0.80
2018-12-29T13:52:42.488Z,0.70
2018-12-29T13:55:11.845Z,0.70
2018-12-29T13:57:40.525Z,0.70
2018-12-29T14:00:09.156Z,0.70
2018-12-29T14:02:39.420Z,0.70
2018-12-29T14:05:08.122Z,0.70
2018-12-29T14:07:36.889Z,0.60
2018-12-29T14:10:05.535Z,0.70
2018-12-29T14:12:34.199Z,0.60
2018-12-29T14:15:02.882Z,0.60
2018-12-29T14:17:31.550Z,0.50
2018-12-29T14:20:00.513Z,0.50
2018-12-29T14:22:29.167Z,0.40
2018-12-29T14:24:58.257Z,0.40
2018-12-29T14:27:26.945Z,0.50
2018-12-29T14:29:55.581Z,0.50
2018-12-29T14:32:24.679Z,0.40
2018-12-29T14:34:53.317Z,0.30
2018-12-29T14:37:21.962Z,0.30
2018-12-29T14:39:50.663Z,0.40
2018-12-29T14:42:20.532Z,0.40
2018-12-29T14:44:49.378Z,0.40
2018-12-29T14:47:18.243Z,0.30
2018-12-29T14:49:46.876Z,0.40
2018-12-29T14:52:15.627Z,0.40
2018-12-29T14:54:44.331Z,0.30
2018-12-29T14:57:12.980Z,0.30
2018-12-29T14:59:41.685Z,0.30
2018-12-29T15:02:10.336Z,0.30
2018-12-29T15:04:39.027Z,0.30
2018-12-29T15:07:07.702Z,0.30
2018-12-29T15:09:36.391Z,0.40
2018-12-29T15:12:05.044Z,0.30
2018-12-29T15:14:33.688Z,0.30
2018-12-29T15:17:02.807Z,0.30
2018-12-29T15:19:31.442Z,0.20
2018-12-29T15:22:00.093Z,0.30
2018-12-29T15:24:28.737Z,0.20
2018-12-29T15:26:57.418Z,0.20
2018-12-29T15:29:26.072Z,0.30
2018-12-29T15:31:54.741Z,0.30
2018-12-29T15:34:23.413Z,0.30
2018-12-29T15:36:52.064Z,0.20
2018-12-29T15:39:21.258Z,0.20
2018-12-29T15:41:49.917Z,0.20
2018-12-29T15:44:18.584Z,0.20
2018-12-29T15:46:47.145Z,0.20
2018-12-29T15:49:15.829Z,0.20
2018-12-29T15:51:45.111Z,0.20
2018-12-29T15:54:13.823Z,0.10
2018-12-29T15:56:42.455Z,0.10
2018-12-29T15:59:11.128Z,0.10
2018-12-29T16:01:39.862Z,0.10
2018-12-29T16:04:08.640Z,0.10
2018-12-29T16:06:37.313Z,0.10
2018-12-29T16:09:07.238Z,0.20
2018-12-29T16:11:36.389Z,0.20
2018-12-29T16:14:05.031Z,0.10
2018-12-29T16:16:33.662Z,0.10
2018-12-29T16:19:02.304Z,0.10
2018-12-29T16:21:30.953Z,0.10
2018-12-29T16:23:59.636Z,0.10
2018-12-29T16:26:28.881Z,0.10
2018-12-29T16:28:57.543Z,0.00
2018-12-29T16:31:26.181Z,0.00
2018-12-29T16:33:54.852Z,0.00
2018-12-29T16:36:23.544Z,0.00
2018-12-29T16:38:52.192Z,0.00
2018-12-29T16:41:20.853Z,0.00
2018-12-29T16:43:49.946Z,0.00
2018-12-29T16:46:18.669Z,0.00
2018-12-29T16:48:47.298Z,0.10
2018-12-29T16:51:15.953Z,0.10
2018-12-29T16:53:45.007Z,0.00
2018-12-29T16:56:13.681Z,0.00
2018-12-29T16:58:42.338Z,0.00
2018-12-29T17:01:11.400Z,-0.10
2018-12-29T17:03:40.649Z,-0.10
2018-12-29T17:06:09.298Z,0.00
2018-12-29T17:08:37.972Z,-0.10
2018-12-29T17:11:06.617Z,-0.10
2018-12-29T17:13:35.728Z,-0.10
2018-12-29T17:16:04.393Z,-0.10
2018-12-29T17:18:35.022Z,-0.10
2018-12-29T17:21:04.263Z,-0.10
2018-12-29T17:23:32.989Z,-0.10
2018-12-29T17:26:01.651Z,-0.10
2018-12-29T17:28:30.642Z,-0.10
2018-12-29T17:30:59.387Z,-0.10
2018-12-29T17:33:28.125Z,-0.10
2018-12-29T17:35:57.066Z,-0.10
2018-12-29T17:38:25.724Z,-0.10
2018-12-29T17:40:54.361Z,-0.10
2018-12-29T17:43:23.145Z,0.00
2018-12-29T17:45:51.811Z,0.00
2018-12-29T17:48:20.464Z,0.00
2018-12-29T17:50:49.105Z,0.00
2018-12-29T17:53:18.058Z,0.00
2018-12-29T17:55:46.711Z,-0.10
2018-12-29T17:58:15.431Z,-0.10
2018-12-29T18:00:44.131Z,-0.10
2018-12-29T18:03:13.578Z,0.00
2018-12-29T18:05:42.297Z,0.00
2018-12-29T18:08:10.959Z,0.00
2018-12-29T18:10:39.732Z,-0.10
2018-12-29T18:13:08.408Z,-0.10
2018-12-29T18:15:37.070Z,-0.10
2018-12-29T18:18:05.760Z,-0.10
2018-12-29T18:20:34.679Z,-0.10
2018-12-29T18:23:03.386Z,-0.10
2018-12-29T18:25:32.073Z,-0.10
2018-12-29T18:28:00.738Z,-0.20
2018-12-29T18:30:29.790Z,-0.10
2018-12-29T18:32:58.466Z,-0.20
2018-12-29T18:35:27.128Z,-0.30
2018-12-29T18:37:55.800Z,-0.30
2018-12-29T18:40:24.438Z,-0.40
2018-12-29T18:42:53.211Z,-0.40
2018-12-29T18:45:21.868Z,-0.40
2018-12-29T18:47:50.530Z,-0.40
2018-12-29T18:50:19.196Z,-0.40
2018-12-29T18:52:47.886Z,-0.40
2018-12-29T18:55:16.540Z,-0.40
2018-12-29T18:57:45.288Z,-0.50
2018-12-29T19:00:13.985Z,-0.50
2018-12-29T19:02:42.636Z,-0.60
2018-12-29T19:05:11.289Z,-0.60
2018-12-29T19:07:39.965Z,-0.60
2018-12-29T19:10:08.932Z,-0.60
2018-12-29T19:12:37.600Z,-0.70
2018-12-29T19:15:07.081Z,-0.70
2018-12-29T19:17:36.325Z,-0.60
2018-12-29T19:20:07.292Z,-0.70
2018-12-29T19:22:35.955Z,-0.70
2018-12-29T19:25:04.713Z,-0.70
2018-12-29T19:27:33.374Z,-0.70
2018-12-29T19:30:02.809Z,-0.70
2018-12-29T19:32:31.642Z,-0.60
2018-12-29T19:35:00.504Z,-0.70
2018-12-29T19:37:29.725Z,-0.80
2018-12-29T19:39:58.576Z,-0.80
2018-12-29T19:42:27.281Z,-0.80
2018-12-29T19:44:56.050Z,-0.90
2018-12-29T19:47:24.736Z,-1.00
2018-12-29T19:49:54.070Z,-1.10
2018-12-29T19:52:22.721Z,-1.10
2018-12-29T19:54:52.501Z,-1.10
2018-12-29T19:57:21.422Z,-1.10
2018-12-29T19:59:50.561Z,-1.10
2018-12-29T20:02:19.889Z,-1.10
2018-12-29T20:04:49.238Z,-1.10
2018-12-29T20:07:18.622Z,-1.10
2018-12-29T20:09:47.329Z,-1.10
2018-12-29T20:12:16.014Z,-1.10
2018-12-29T20:14:44.665Z,-1.20
2018-12-29T20:17:13.414Z,-1.20
2018-12-29T20:19:42.080Z,-1.30
2018-12-29T20:22:10.734Z,-1.30
2018-12-29T20:24:39.397Z,-1.20
2018-12-29T20:27:08.039Z,-1.30
2018-12-29T20:29:36.680Z,-1.30
2018-12-29T20:32:05.339Z,-1.40
2018-12-29T20:34:35.978Z,-1.40
2018-12-29T20:37:04.502Z,-1.40
2018-12-29T20:39:33.134Z,-1.40
2018-12-29T20:42:01.917Z,-1.30
2018-12-29T20:44:30.632Z,-1.30
2018-12-29T20:46:59.908Z,-1.30
2018-12-29T20:49:29.542Z,-1.40
2018-12-29T20:51:58.841Z,-1.40
2018-12-29T20:54:27.502Z,-1.40
2018-12-29T20:56:56.794Z,-1.40
2018-12-29T20:59:25.391Z,-1.30
2018-12-29T21:01:54.072Z,-1.30
2018-12-29T21:04:24.301Z,-1.20
2018-12-29T21:06:55.769Z,-1.30
2018-12-29T21:09:24.448Z,-1.30
2018-12-29T21:11:53.110Z,-1.20
2018-12-29T21:14:21.805Z,-1.20
2018-12-29T21:16:50.449Z,-1.20
2018-12-29T21:19:19.097Z,-1.30
2018-12-29T21:21:47.745Z,-1.40
2018-12-29T21:24:16.415Z,-1.40
2018-12-29T21:26:45.558Z,-1.30
2018-12-29T21:29:14.224Z,-1.40
2018-12-29T21:31:42.902Z,-1.10
2018-12-29T21:34:11.582Z,-0.70
2018-12-29T21:36:40.250Z,-0.80
2018-12-29T21:39:08.957Z,-0.80
2018-12-29T21:41:37.671Z,-1.10
2018-12-29T21:44:06.317Z,-1.20
2018-12-29T21:46:34.960Z,-1.30
2018-12-29T21:49:03.618Z,-1.30
2018-12-29T21:51:32.283Z,-1.30
2018-12-29T21:54:01.468Z,-1.40
2018-12-29T21:56:31.244Z,-1.30
2018-12-29T21:59:00.926Z,-1.40
2018-12-29T22:01:29.607Z,-1.40
2018-12-29T22:03:58.256Z,-1.50
2018-12-29T22:06:26.964Z,-1.60
2018-12-29T22:08:55.625Z,-1.60
2018-12-29T22:11:24.382Z,-1.60
2018-12-29T22:13:53.036Z,-1.60
2018-12-29T22:16:23.252Z,-1.70
2018-12-29T22:18:53.175Z,-1.80
2018-12-29T22:21:22.214Z,-1.80
2018-12-29T22:23:53.958Z,-1.90
2018-12-29T22:26:22.621Z,-1.80
2018-12-29T22:28:51.269Z,-1.80
2018-12-29T22:31:19.917Z,-1.80
2018-12-29T22:33:49.080Z,-1.80
2018-12-29T22:36:17.732Z,-1.80
2018-12-29T22:38:46.378Z,-1.80
2018-12-29T22:41:15.051Z,-1.80
2018-12-29T22:43:43.702Z,-1.90
2018-12-29T22:46:12.387Z,-1.90
2018-12-29T22:48:41.037Z,-1.80
2018-12-29T22:51:09.691Z,-1.90
2018-12-29T22:53:39.970Z,-1.90
2018-12-29T22:56:08.610Z,-1.90
2018-12-29T22:58:37.248Z,-1.90
2018-12-29T23:01:05.912Z,-1.90
2018-12-29T23:03:34.918Z,-1.90
2018-12-29T23:06:05.240Z,-1.80
2018-12-29T23:08:33.864Z,-1.80
2018-12-29T23:11:03.274Z,-1.90
2018-12-29T23:13:31.905Z,-1.90
2018-12-29T23:16:00.551Z,-1.90
2018-12-29T23:18:29.210Z,-2.00
2018-12-29T23:20:57.868Z,-2.00
2018-12-29T23:23:26.514Z,-2.00
2018-12-29T23:25:55.650Z,-2.00
2018-12-29T23:28:24.308Z,-2.00
2018-12-29T23:30:53.571Z,-2.00
2018-12-29T23:33:22.205Z,-2.00
2018-12-29T23:35:50.850Z,-2.00
2018-12-29T23:38:19.495Z,-2.00
2018-12-29T23:40:48.141Z,-2.10
2018-12-29T23:43:16.781Z,-2.20
2018-12-29T23:45:45.452Z,-2.20
2018-12-29T23:48:14.103Z,-2.10
2018-12-29T23:50:42.759Z,-2.10
2018-12-29T23:53:11.400Z,-2.20
2018-12-29T23:55:40.450Z,-2.10
2018-12-29T23:58:09.729Z,-2.10
